Time;durP1;ratioP1;P1;durP2;ratioP2;P2;SDS_P1;SDS_P2;PMS_P1;PMS_P2;Temp;Humidity;BMP_temperature;BMP_pressure;BME280_temperature;BME280_humidity;BME280_pressure;Samples;Min_cycle;Max_cycle;Signal;HPM_P1;HPM_P2
2023/05/21 00:00:15;;;;;;;21.20;17.90;;;;;;;;;;6038252;23;20664;-69
2023/05/21 00:02:43;;;;;;;21.60;17.60;;;;;;;;;;6037905;23;20676;-69
2023/05/21 00:05:13;;;;;;;23.10;18.00;;;;;;;;;;6036159;23;21060;-69
2023/05/21 00:07:41;;;;;;;22.33;17.40;;;;;;;;;;6036999;23;20762;-70
2023/05/21 00:10:10;;;;;;;20.63;18.30;;;;;;;;;;6037864;23;20988;-68
2023/05/21 00:12:39;;;;;;;30.90;17.40;;;;;;;;;;6038644;23;20695;-69
2023/05/21 00:15:09;;;;;;;20.63;17.20;;;;;;;;;;6038539;23;20660;-68
2023/05/21 00:17:38;;;;;;;21.80;17.77;;;;;;;;;;6038902;23;21110;-69
2023/05/21 00:20:08;;;;;;;27.37;17.93;;;;;;;;;;6036380;23;20676;-69
2023/05/21 00:22:37;;;;;;;20.87;17.13;;;;;;;;;;6038139;23;20645;-69
2023/05/21 00:25:05;;;;;;;19.60;17.43;;;;;;;;;;6038290;23;20696;-70
2023/05/21 00:27:33;;;;;;;20.90;18.70;;;;;;;;;;6038176;23;21010;-71
2023/05/21 00:30:02;;;;;;;20.03;17.00;;;;;;;;;;6039032;23;21135;-70
2023/05/21 00:32:32;;;;;;;21.73;17.30;;;;;;;;;;6037049;23;20703;-70
2023/05/21 00:35:00;;;;;;;21.97;15.47;;;;;;;;;;6037811;23;20728;-70
2023/05/21 00:37:33;;;;;;;23.80;17.40;;;;;;;;;;6037949;23;20652;-69
2023/05/21 00:40:03;;;;;;;20.60;17.67;;;;;;;;;;6039124;23;20616;-70
2023/05/21 00:42:32;;;;;;;24.40;18.43;;;;;;;;;;6038151;23;20652;-70
2023/05/21 00:45:02;;;;;;;24.00;18.00;;;;;;;;;;6038559;23;20708;-69
2023/05/21 00:47:30;;;;;;;19.17;16.87;;;;;;;;;;6037991;23;20636;-69
2023/05/21 00:50:00;;;;;;;22.60;18.50;;;;;;;;;;6038806;23;20672;-70
2023/05/21 00:52:28;;;;;;;19.67;16.20;;;;;;;;;;6038305;23;20664;-70
2023/05/21 00:54:57;;;;;;;21.90;17.00;;;;;;;;;;6039522;23;20664;-70
2023/05/21 00:57:26;;;;;;;19.43;17.03;;;;;;;;;;6037991;23;20724;-70
2023/05/21 00:59:55;;;;;;;22.60;18.40;;;;;;;;;;6038904;23;21165;-70
2023/05/21 01:02:24;;;;;;;20.57;17.77;;;;;;;;;;6041994;23;20688;-68
2023/05/21 01:04:55;;;;;;;20.63;17.30;;;;;;;;;;6043461;23;20676;-67
2023/05/21 01:07:24;;;;;;;22.50;16.87;;;;;;;;;;6060601;23;20636;-68
2023/05/21 01:09:53;;;;;;;20.30;17.43;;;;;;;;;;6071564;23;20675;-68
2023/05/21 01:12:23;;;;;;;20.87;16.83;;;;;;;;;;6044879;23;20671;-68
2023/05/21 01:14:52;;;;;;;22.20;17.07;;;;;;;;;;6071282;23;20664;-68
2023/05/21 01:17:23;;;;;;;21.60;16.67;;;;;;;;;;6071220;23;20606;-68
2023/05/21 01:19:53;;;;;;;23.47;16.90;;;;;;;;;;6045874;23;20922;-68
2023/05/21 01:22:24;;;;;;;20.37;16.70;;;;;;;;;;6046728;23;20604;-68
2023/05/21 01:24:54;;;;;;;17.70;15.80;;;;;;;;;;6071332;23;20672;-68
2023/05/21 01:27:23;;;;;;;20.20;16.87;;;;;;;;;;6071659;23;20572;-68
2023/05/21 01:29:51;;;;;;;26.07;17.43;;;;;;;;;;6045528;23;20656;-68
2023/05/21 01:32:24;;;;;;;25.73;17.23;;;;;;;;;;6072608;23;20668;-68
2023/05/21 01:34:56;;;;;;;22.80;17.20;;;;;;;;;;6073485;23;20608;-68
2023/05/21 01:37:27;;;;;;;22.33;16.70;;;;;;;;;;6073206;23;20564;-68
2023/05/21 01:40:00;;;;;;;19.27;15.83;;;;;;;;;;6048498;23;20628;-68
2023/05/21 01:42:29;;;;;;;17.90;15.93;;;;;;;;;;6024251;23;20538;-68
2023/05/21 01:45:00;;;;;;;20.83;17.40;;;;;;;;;;6047930;23;20695;-68
2023/05/21 01:47:30;;;;;;;19.33;17.23;;;;;;;;;;6073714;23;20604;-67
2023/05/21 01:49:59;;;;;;;21.60;16.90;;;;;;;;;;6073961;23;20994;-68
2023/05/21 01:52:27;;;;;;;19.37;16.97;;;;;;;;;;6073645;23;20620;-68
2023/05/21 01:54:59;;;;;;;22.80;17.50;;;;;;;;;;6047557;23;20654;-68
2023/05/21 01:57:27;;;;;;;20.13;17.10;;;;;;;;;;6048477;23;20583;-68
2023/05/21 01:59:56;;;;;;;18.33;16.40;;;;;;;;;;6073231;23;20692;-68
2023/05/21 02:02:24;;;;;;;22.70;17.10;;;;;;;;;;6072546;23;21012;-68
2023/05/21 02:04:52;;;;;;;22.10;17.40;;;;;;;;;;6071833;23;20677;-68
2023/05/21 02:07:21;;;;;;;19.50;17.03;;;;;;;;;;6073609;23;20607;-68
2023/05/21 02:09:49;;;;;;;19.53;17.50;;;;;;;;;;6072795;23;20672;-68
2023/05/21 02:12:20;;;;;;;18.50;16.40;;;;;;;;;;6074264;23;20612;-68
2023/05/21 02:14:49;;;;;;;18.30;15.17;;;;;;;;;;6073691;23;20640;-68
2023/05/21 02:17:17;;;;;;;19.40;16.07;;;;;;;;;;6072958;23;20643;-68
2023/05/21 02:19:45;;;;;;;21.93;16.57;;;;;;;;;;6048152;23;20607;-68
2023/05/21 02:22:14;;;;;;;23.60;17.30;;;;;;;;;;6048030;23;20676;-68
2023/05/21 02:24:42;;;;;;;22.20;17.40;;;;;;;;;;6073428;23;20667;-68
2023/05/21 02:27:12;;;;;;;23.13;17.20;;;;;;;;;;6073763;23;20600;-69
2023/05/21 02:29:42;;;;;;;18.23;16.33;;;;;;;;;;6074000;23;21024;-66
2023/05/21 02:32:10;;;;;;;21.93;17.10;;;;;;;;;;6073243;23;20604;-66
2023/05/21 02:34:41;;;;;;;22.07;17.30;;;;;;;;;;6048703;23;20663;-65
2023/05/21 02:37:09;;;;;;;20.70;17.80;;;;;;;;;;6071508;23;20594;-67
2023/05/21 02:39:37;;;;;;;21.80;17.67;;;;;;;;;;6048340;23;20663;-67
2023/05/21 02:42:06;;;;;;;25.50;17.50;;;;;;;;;;6022697;23;20619;-66
2023/05/21 02:44:34;;;;;;;23.83;17.13;;;;;;;;;;6048510;23;20619;-67
2023/05/21 02:47:04;;;;;;;24.63;17.30;;;;;;;;;;6047569;23;20664;-67
2023/05/21 02:49:32;;;;;;;21.47;17.40;;;;;;;;;;6048998;23;20607;-67
2023/05/21 02:52:00;;;;;;;18.63;16.10;;;;;;;;;;6046619;23;21178;-67
2023/05/21 02:54:28;;;;;;;21.40;17.83;;;;;;;;;;6047909;23;20619;-67
2023/05/21 02:56:57;;;;;;;18.73;16.37;;;;;;;;;;6071760;23;20654;-66
2023/05/21 02:59:25;;;;;;;19.47;16.40;;;;;;;;;;6072427;23;20617;-66
2023/05/21 03:01:53;;;;;;;25.43;18.10;;;;;;;;;;6070200;23;20618;-67
2023/05/21 03:04:23;;;;;;;19.43;17.30;;;;;;;;;;6070813;23;21182;-67
2023/05/21 03:06:53;;;;;;;21.77;17.27;;;;;;;;;;6022226;23;20711;-67
2023/05/21 03:09:22;;;;;;;25.10;17.67;;;;;;;;;;6072352;23;20574;-67
2023/05/21 03:11:50;;;;;;;24.20;17.60;;;;;;;;;;6071267;23;20640;-67
2023/05/21 03:14:19;;;;;;;23.10;16.73;;;;;;;;;;6072859;23;20581;-67
2023/05/21 03:16:47;;;;;;;22.40;16.33;;;;;;;;;;6046172;23;20986;-66
2023/05/21 03:19:16;;;;;;;22.30;16.70;;;;;;;;;;6047222;23;20623;-66
2023/05/21 03:21:45;;;;;;;18.47;16.40;;;;;;;;;;6071861;23;20667;-66
2023/05/21 03:24:14;;;;;;;23.77;17.73;;;;;;;;;;6072280;23;21199;-66
2023/05/21 03:26:42;;;;;;;19.07;17.00;;;;;;;;;;6070696;23;20954;-66
2023/05/21 03:29:11;;;;;;;26.93;17.30;;;;;;;;;;6071318;23;20623;-66
2023/05/21 03:31:41;;;;;;;18.83;14.17;;;;;;;;;;6023764;23;20572;-66
2023/05/21 03:34:11;;;;;;;22.30;15.43;;;;;;;;;;6047051;23;20638;-67
2023/05/21 03:36:39;;;;;;;21.60;18.20;;;;;;;;;;6072242;23;20728;-67
2023/05/21 03:39:09;;;;;;;21.10;16.40;;;;;;;;;;6023273;23;20940;-67
2023/05/21 03:41:37;;;;;;;21.43;17.70;;;;;;;;;;6072073;23;20623;-67
2023/05/21 03:44:23;;;;;;;20.27;16.40;;;;;;;;;;6046715;23;20876;-67
2023/05/21 03:46:58;;;;;;;21.40;16.20;;;;;;;;;;6071959;23;20678;-67
2023/05/21 03:49:29;;;;;;;20.10;16.10;;;;;;;;;;6022896;23;20627;-67
2023/05/21 03:51:59;;;;;;;22.30;16.73;;;;;;;;;;6046552;23;20612;-67
2023/05/21 03:54:29;;;;;;;18.57;16.40;;;;;;;;;;6046763;23;20632;-67
2023/05/21 03:57:02;;;;;;;21.90;16.53;;;;;;;;;;6047229;23;20593;-67
2023/05/21 03:59:30;;;;;;;19.23;16.30;;;;;;;;;;6071933;23;20642;-67
2023/05/21 04:02:01;;;;;;;21.23;16.33;;;;;;;;;;6023211;23;20629;-67
2023/05/21 04:04:30;;;;;;;19.03;16.17;;;;;;;;;;6045417;23;20655;-67
2023/05/21 04:06:58;;;;;;;22.37;16.47;;;;;;;;;;6045703;23;20640;-68
2023/05/21 04:09:27;;;;;;;20.03;17.03;;;;;;;;;;6070670;23;20694;-67
2023/05/21 04:11:57;;;;;;;21.73;16.50;;;;;;;;;;6072249;23;20665;-66
2023/05/21 04:14:25;;;;;;;18.60;16.50;;;;;;;;;;6071501;23;20641;-67
2023/05/21 04:16:54;;;;;;;19.87;17.50;;;;;;;;;;6047235;23;20626;-67
2023/05/21 04:19:23;;;;;;;21.33;16.37;;;;;;;;;;6045631;23;20571;-67
2023/05/21 04:21:51;;;;;;;20.70;17.10;;;;;;;;;;6046630;23;21111;-67
2023/05/21 04:24:21;;;;;;;22.57;16.20;;;;;;;;;;6046536;23;20756;-67
2023/05/21 04:27:02;;;;;;;17.83;15.67;;;;;;;;;;6047121;23;20650;-67
2023/05/21 04:29:32;;;;;;;19.27;16.10;;;;;;;;;;6046493;23;20636;-67
2023/05/21 04:32:00;;;;;;;21.30;16.40;;;;;;;;;;6047300;23;20671;-67
2023/05/21 04:34:31;;;;;;;25.40;16.40;;;;;;;;;;6071034;23;20586;-67
2023/05/21 04:37:01;;;;;;;22.40;17.77;;;;;;;;;;6071445;23;20681;-67
2023/05/21 04:39:30;;;;;;;20.73;17.70;;;;;;;;;;6046109;23;20596;-67
2023/05/21 04:41:58;;;;;;;20.13;15.87;;;;;;;;;;6072024;23;20724;-68
2023/05/21 04:44:28;;;;;;;22.10;16.83;;;;;;;;;;6070066;23;20733;-67
2023/05/21 04:46:59;;;;;;;22.10;17.13;;;;;;;;;;6046320;23;20638;-67
2023/05/21 04:49:27;;;;;;;19.43;16.33;;;;;;;;;;6046308;23;20664;-66
2023/05/21 04:51:56;;;;;;;20.20;15.27;;;;;;;;;;6046201;23;20679;-67
2023/05/21 04:54:24;;;;;;;20.50;15.97;;;;;;;;;;6071349;23;20621;-67
2023/05/21 04:56:53;;;;;;;16.97;15.10;;;;;;;;;;6045970;23;20640;-67
2023/05/21 04:59:21;;;;;;;22.83;17.30;;;;;;;;;;6071530;23;20627;-67
2023/05/21 05:01:51;;;;;;;21.67;16.13;;;;;;;;;;6045352;23;20620;-67
2023/05/21 05:04:19;;;;;;;21.03;15.83;;;;;;;;;;6070789;23;20716;-67
2023/05/21 05:06:48;;;;;;;18.83;15.90;;;;;;;;;;6045691;23;20695;-67
2023/05/21 05:09:16;;;;;;;20.37;16.20;;;;;;;;;;6048260;23;20640;-67
2023/05/21 05:11:45;;;;;;;24.27;16.40;;;;;;;;;;6047404;23;20632;-67
2023/05/21 05:14:13;;;;;;;19.03;17.03;;;;;;;;;;6073608;23;20973;-67
2023/05/21 05:16:46;;;;;;;19.20;15.63;;;;;;;;;;6048648;23;20981;-67
2023/05/21 05:19:16;;;;;;;17.20;15.43;;;;;;;;;;6047503;23;20628;-67
2023/05/21 05:21:46;;;;;;;16.93;15.20;;;;;;;;;;6048695;23;20569;-67
2023/05/21 05:24:15;;;;;;;19.83;15.90;;;;;;;;;;6047878;23;20956;-67
2023/05/21 05:26:44;;;;;;;18.57;16.13;;;;;;;;;;6047921;23;20694;-67
2023/05/21 05:29:12;;;;;;;18.30;16.33;;;;;;;;;;6047908;23;20676;-67
2023/05/21 05:31:41;;;;;;;21.10;15.80;;;;;;;;;;6048179;23;20964;-67
2023/05/21 05:34:09;;;;;;;20.50;14.00;;;;;;;;;;6023383;23;20633;-67
2023/05/21 05:36:39;;;;;;;17.53;15.53;;;;;;;;;;6048214;23;20611;-67
2023/05/21 05:39:07;;;;;;;19.07;15.83;;;;;;;;;;6048389;23;20662;-67
2023/05/21 05:41:35;;;;;;;21.90;15.60;;;;;;;;;;6048052;23;20639;-67
2023/05/21 05:44:04;;;;;;;21.57;16.03;;;;;;;;;;6049494;23;20684;-67
2023/05/21 05:46:36;;;;;;;17.10;15.30;;;;;;;;;;6074489;23;20616;-67
2023/05/21 05:49:05;;;;;;;24.13;15.13;;;;;;;;;;6045889;23;20667;-67
2023/05/21 05:51:33;;;;;;;19.23;15.03;;;;;;;;;;6048250;23;20667;-68
2023/05/21 05:54:02;;;;;;;17.53;15.30;;;;;;;;;;6047790;23;20615;-67
2023/05/21 05:56:31;;;;;;;21.20;14.50;;;;;;;;;;6048018;23;20548;-67
2023/05/21 05:59:00;;;;;;;20.80;15.60;;;;;;;;;;6072413;23;21011;-67
2023/05/21 06:01:30;;;;;;;18.43;14.90;;;;;;;;;;6047049;23;20953;-68
2023/05/21 06:03:59;;;;;;;17.93;15.70;;;;;;;;;;6046098;23;20901;-67
2023/05/21 06:06:27;;;;;;;18.90;16.23;;;;;;;;;;6047926;23;20710;-67
2023/05/21 06:08:56;;;;;;;19.00;15.67;;;;;;;;;;6047976;23;20608;-67
2023/05/21 06:11:29;;;;;;;16.47;14.07;;;;;;;;;;6025833;23;21116;-68
2023/05/21 06:13:59;;;;;;;16.60;14.17;;;;;;;;;;6047579;23;20644;-67
2023/05/21 06:16:30;;;;;;;17.17;14.87;;;;;;;;;;6073846;23;20610;-67
2023/05/21 06:18:58;;;;;;;16.57;14.87;;;;;;;;;;6070968;23;20627;-67
2023/05/21 06:21:29;;;;;;;17.13;13.93;;;;;;;;;;6072470;23;20645;-67
2023/05/21 06:23:58;;;;;;;17.83;16.00;;;;;;;;;;6072511;23;21072;-68
2023/05/21 06:26:26;;;;;;;18.20;15.57;;;;;;;;;;6071505;23;20619;-68
2023/05/21 06:28:56;;;;;;;16.37;14.57;;;;;;;;;;6046672;23;20659;-68
2023/05/21 06:31:25;;;;;;;16.43;14.17;;;;;;;;;;6045983;23;20967;-68
2023/05/21 06:33:53;;;;;;;16.40;14.50;;;;;;;;;;6046789;23;20630;-67
2023/05/21 06:36:21;;;;;;;18.50;15.00;;;;;;;;;;6071629;23;20608;-67
2023/05/21 06:38:50;;;;;;;18.83;15.43;;;;;;;;;;6045194;23;21183;-67
2023/05/21 06:41:18;;;;;;;17.87;14.33;;;;;;;;;;6044619;23;20727;-67
2023/05/21 06:43:54;;;;;;;17.17;15.23;;;;;;;;;;6046648;23;20619;-68
2023/05/21 06:46:42;;;;;;;16.43;14.43;;;;;;;;;;6071083;23;20592;-67
2023/05/21 06:49:12;;;;;;;18.37;14.27;;;;;;;;;;6071701;23;20564;-67
2023/05/21 06:51:41;;;;;;;17.07;15.07;;;;;;;;;;6045816;23;20671;-68
2023/05/21 06:54:10;;;;;;;16.50;14.30;;;;;;;;;;6046840;23;20630;-68
2023/05/21 06:56:41;;;;;;;18.20;14.13;;;;;;;;;;6045950;23;20636;-68
2023/05/21 06:59:09;;;;;;;14.90;13.23;;;;;;;;;;6045646;23;20667;-68
2023/05/21 07:01:41;;;;;;;19.23;15.20;;;;;;;;;;6045015;23;20668;-67
2023/05/21 07:04:10;;;;;;;16.20;13.20;;;;;;;;;;6046217;23;20627;-68
2023/05/21 07:06:39;;;;;;;15.57;13.97;;;;;;;;;;6043631;23;21223;-68
2023/05/21 07:09:07;;;;;;;16.70;14.43;;;;;;;;;;6071297;23;21009;-67
2023/05/21 07:11:37;;;;;;;16.00;13.80;;;;;;;;;;6042966;23;21207;-68
2023/05/21 07:14:07;;;;;;;16.50;14.80;;;;;;;;;;6046892;23;20608;-68
2023/05/21 07:16:37;;;;;;;14.77;13.30;;;;;;;;;;6045739;23;20635;-67
2023/05/21 07:19:06;;;;;;;16.30;14.60;;;;;;;;;;6045967;23;20660;-67
2023/05/21 07:21:36;;;;;;;16.40;14.70;;;;;;;;;;6045832;23;20668;-68
2023/05/21 07:24:04;;;;;;;16.77;14.93;;;;;;;;;;6072423;23;20814;-68
2023/05/21 07:26:32;;;;;;;18.27;14.77;;;;;;;;;;6071376;23;20604;-68
2023/05/21 07:29:01;;;;;;;14.87;13.27;;;;;;;;;;6072359;23;20684;-68
2023/05/21 07:31:29;;;;;;;15.80;14.07;;;;;;;;;;6044936;23;20636;-68
2023/05/21 07:33:58;;;;;;;17.20;14.67;;;;;;;;;;6046704;23;20608;-69
2023/05/21 07:36:32;;;;;;;16.23;13.47;;;;;;;;;;6022429;23;20615;-68
2023/05/21 07:39:02;;;;;;;16.70;15.00;;;;;;;;;;6046760;23;20572;-69
2023/05/21 07:41:31;;;;;;;14.50;13.00;;;;;;;;;;6022547;23;20668;-67
2023/05/21 07:44:01;;;;;;;14.23;12.83;;;;;;;;;;6050340;23;20568;-67
2023/05/21 07:46:29;;;;;;;19.27;13.77;;;;;;;;;;6048035;23;20603;-67
2023/05/21 07:48:59;;;;;;;15.43;13.10;;;;;;;;;;6051985;23;20648;-67
2023/05/21 07:51:27;;;;;;;16.00;14.20;;;;;;;;;;6050210;23;20663;-67
2023/05/21 07:53:56;;;;;;;16.50;14.90;;;;;;;;;;6076630;23;20649;-67
2023/05/21 07:56:32;;;;;;;22.17;13.40;;;;;;;;;;6025401;23;20591;-68
2023/05/21 07:59:01;;;;;;;16.00;14.30;;;;;;;;;;6052306;23;20607;-68
2023/05/21 08:01:30;;;;;;;15.40;13.30;;;;;;;;;;6049369;23;20607;-67
2023/05/21 08:04:04;;;;;;;19.37;17.23;;;;;;;;;;6048642;23;20671;-67
2023/05/21 08:06:33;;;;;;;15.97;14.27;;;;;;;;;;6048715;23;20642;-68
2023/05/21 08:09:01;;;;;;;18.93;14.47;;;;;;;;;;6026534;23;20640;-66
2023/05/21 08:11:30;;;;;;;14.33;13.00;;;;;;;;;;6048870;23;21156;-66
2023/05/21 08:13:59;;;;;;;14.87;13.40;;;;;;;;;;6050130;23;20663;-67
2023/05/21 08:16:28;;;;;;;15.37;13.83;;;;;;;;;;6050158;23;20632;-67
2023/05/21 08:18:56;;;;;;;14.77;13.37;;;;;;;;;;6050637;23;20612;-67
2023/05/21 08:21:25;;;;;;;14.20;12.80;;;;;;;;;;6049228;23;20604;-68
2023/05/21 08:23:53;;;;;;;14.53;13.13;;;;;;;;;;6076027;23;20663;-67
2023/05/21 08:26:22;;;;;;;15.07;13.43;;;;;;;;;;6048910;23;20600;-67
2023/05/21 08:28:50;;;;;;;13.50;12.30;;;;;;;;;;6075112;23;20715;-67
2023/05/21 08:31:20;;;;;;;14.80;13.30;;;;;;;;;;6073345;23;20636;-66
2023/05/21 08:33:51;;;;;;;15.00;13.53;;;;;;;;;;6046988;23;20945;-72
2023/05/21 08:36:21;;;;;;;14.77;13.50;;;;;;;;;;6047625;23;20576;-67
2023/05/21 08:38:56;;;;;;;15.80;14.10;;;;;;;;;;6047649;23;20567;-66
2023/05/21 08:41:35;;;;;;;15.00;13.50;;;;;;;;;;6047313;23;20572;-66
2023/05/21 08:44:05;;;;;;;14.20;12.73;;;;;;;;;;6048470;23;20863;-66
2023/05/21 08:46:34;;;;;;;15.70;13.87;;;;;;;;;;6073528;23;20617;-66
2023/05/21 08:49:03;;;;;;;14.80;13.50;;;;;;;;;;6071973;23;21012;-66
2023/05/21 08:51:32;;;;;;;17.80;14.97;;;;;;;;;;6024131;23;20596;-66
2023/05/21 08:54:02;;;;;;;14.93;13.43;;;;;;;;;;6047314;23;20976;-66
2023/05/21 08:56:32;;;;;;;14.03;12.83;;;;;;;;;;6073102;23;20603;-66
2023/05/21 08:59:00;;;;;;;14.00;12.70;;;;;;;;;;6074247;23;20683;-66
2023/05/21 09:01:34;;;;;;;14.83;13.30;;;;;;;;;;6047048;23;20627;-66
2023/05/21 09:04:20;;;;;;;17.00;13.40;;;;;;;;;;6046146;23;20612;-66
2023/05/21 09:06:50;;;;;;;14.40;12.90;;;;;;;;;;6047178;23;20639;-66
2023/05/21 09:09:28;;;;;;;12.87;11.77;;;;;;;;;;6047862;23;20690;-66
2023/05/21 09:11:57;;;;;;;15.33;12.63;;;;;;;;;;6072052;23;20897;-66
2023/05/21 09:14:25;;;;;;;13.23;12.10;;;;;;;;;;6072136;23;20672;-66
2023/05/21 09:17:06;;;;;;;13.83;12.47;;;;;;;;;;6047141;23;20658;-66
2023/05/21 09:19:34;;;;;;;13.23;12.07;;;;;;;;;;6048121;23;20576;-66
2023/05/21 09:22:04;;;;;;;14.93;13.40;;;;;;;;;;6047908;23;20575;-68
2023/05/21 09:24:34;;;;;;;13.77;12.60;;;;;;;;;;6048241;23;20579;-66
2023/05/21 09:27:02;;;;;;;15.00;13.70;;;;;;;;;;6073193;23;20600;-66
2023/05/21 09:29:34;;;;;;;14.30;13.00;;;;;;;;;;6042666;23;20695;-66
2023/05/21 09:32:08;;;;;;;13.50;12.30;;;;;;;;;;6046497;23;20568;-66
2023/05/21 09:34:39;;;;;;;13.53;11.90;;;;;;;;;;6046380;23;21115;-66
2023/05/21 09:37:08;;;;;;;15.27;13.00;;;;;;;;;;6045609;23;20944;-66
2023/05/21 09:39:36;;;;;;;14.07;12.73;;;;;;;;;;6047082;23;20640;-66
2023/05/21 09:42:05;;;;;;;15.20;13.77;;;;;;;;;;6047703;23;21061;-66
2023/05/21 09:44:35;;;;;;;17.00;13.40;;;;;;;;;;6046666;23;20612;-67
2023/05/21 09:47:04;;;;;;;13.93;12.83;;;;;;;;;;6050526;23;20604;-66
2023/05/21 09:49:33;;;;;;;15.00;13.90;;;;;;;;;;6076297;23;20655;-66
2023/05/21 09:52:02;;;;;;;14.90;13.60;;;;;;;;;;6050739;23;20603;-66
2023/05/21 09:54:32;;;;;;;14.13;13.03;;;;;;;;;;6076357;23;20636;-66
2023/05/21 09:57:01;;;;;;;12.93;11.80;;;;;;;;;;6077455;23;20632;-66
2023/05/21 09:59:36;;;;;;;14.13;12.93;;;;;;;;;;6076693;23;20606;-66
2023/05/21 10:02:04;;;;;;;14.20;13.10;;;;;;;;;;6077752;23;20574;-66
2023/05/21 10:04:34;;;;;;;14.50;13.30;;;;;;;;;;6075400;23;20677;-66
2023/05/21 10:07:02;;;;;;;14.07;12.90;;;;;;;;;;6078100;23;20635;-66
2023/05/21 10:09:31;;;;;;;13.43;12.30;;;;;;;;;;6076953;23;20670;-67
2023/05/21 10:11:59;;;;;;;14.40;13.20;;;;;;;;;;6076998;23;20606;-66
2023/05/21 10:14:30;;;;;;;15.20;13.70;;;;;;;;;;6075261;23;20631;-67
2023/05/21 10:16:59;;;;;;;13.90;12.63;;;;;;;;;;6077780;23;20560;-66
2023/05/21 10:19:30;;;;;;;14.47;13.13;;;;;;;;;;6077108;23;20604;-66
2023/05/21 10:22:00;;;;;;;14.43;13.00;;;;;;;;;;6078320;23;20552;-67
2023/05/21 10:24:29;;;;;;;15.37;14.07;;;;;;;;;;6076476;23;20572;-67
2023/05/21 10:26:57;;;;;;;15.50;14.03;;;;;;;;;;6077704;23;20936;-66
2023/05/21 10:29:26;;;;;;;15.20;13.90;;;;;;;;;;6076531;23;20647;-66
2023/05/21 10:31:54;;;;;;;15.40;14.10;;;;;;;;;;6077641;23;20607;-67
2023/05/21 10:34:24;;;;;;;15.33;14.10;;;;;;;;;;6076642;23;20603;-66
2023/05/21 10:36:53;;;;;;;15.23;13.80;;;;;;;;;;6078414;23;20599;-66
2023/05/21 10:39:24;;;;;;;15.73;13.80;;;;;;;;;;6076383;23;20600;-66
2023/05/21 10:41:55;;;;;;;13.87;12.87;;;;;;;;;;6078131;23;21080;-66
2023/05/21 10:44:30;;;;;;;12.77;11.67;;;;;;;;;;6075632;23;20588;-66
2023/05/21 10:47:16;;;;;;;14.40;13.07;;;;;;;;;;6076602;23;20564;-67
2023/05/21 10:49:59;;;;;;;16.00;13.47;;;;;;;;;;6050283;23;20651;-67
2023/05/21 10:52:39;;;;;;;15.90;14.70;;;;;;;;;;6076449;23;20564;-66
2023/05/21 10:55:17;;;;;;;14.63;13.33;;;;;;;;;;6075001;23;20572;-66
2023/05/21 10:57:55;;;;;;;13.77;12.77;;;;;;;;;;6075991;23;20591;-67
2023/05/21 11:00:25;;;;;;;13.60;12.33;;;;;;;;;;6075114;23;20576;-67
2023/05/21 11:02:53;;;;;;;14.47;13.20;;;;;;;;;;6073645;23;20679;-66
2023/05/21 11:05:40;;;;;;;13.83;12.83;;;;;;;;;;6074273;23;20616;-67
2023/05/21 11:08:21;;;;;;;15.07;13.70;;;;;;;;;;6049676;23;20643;-67
2023/05/21 11:10:54;;;;;;;13.40;12.40;;;;;;;;;;6075072;23;20659;-66
2023/05/21 11:13:22;;;;;;;14.77;13.23;;;;;;;;;;6051260;23;20584;-66
2023/05/21 11:16:07;;;;;;;13.70;12.43;;;;;;;;;;6076306;23;20607;-66
2023/05/21 11:18:54;;;;;;;13.43;12.27;;;;;;;;;;6077427;23;20572;-67
2023/05/21 11:21:27;;;;;;;15.10;13.90;;;;;;;;;;6075625;23;20584;-67
2023/05/21 11:23:56;;;;;;;14.00;12.90;;;;;;;;;;6076375;23;20560;-67
2023/05/21 11:26:26;;;;;;;14.77;13.40;;;;;;;;;;6075275;23;20612;-67
2023/05/21 11:29:07;;;;;;;14.43;13.17;;;;;;;;;;6075741;23;20564;-66
2023/05/21 11:31:40;;;;;;;14.63;13.33;;;;;;;;;;6049029;23;20596;-66
2023/05/21 11:34:14;;;;;;;20.97;13.53;;;;;;;;;;6076907;23;20577;-67
2023/05/21 11:36:45;;;;;;;16.87;13.20;;;;;;;;;;6075318;23;20623;-67
2023/05/21 11:39:14;;;;;;;14.40;13.37;;;;;;;;;;6076853;23;20545;-67
2023/05/21 11:41:53;;;;;;;13.33;12.33;;;;;;;;;;6074217;23;20608;-67
2023/05/21 11:44:22;;;;;;;13.80;12.80;;;;;;;;;;6075417;23;20609;-67
2023/05/21 11:46:51;;;;;;;14.67;13.50;;;;;;;;;;6074631;23;20608;-67
2023/05/21 11:49:22;;;;;;;15.23;13.30;;;;;;;;;;6076462;23;20643;-67
2023/05/21 11:51:50;;;;;;;13.57;12.63;;;;;;;;;;6072730;23;20604;-67
2023/05/21 11:54:19;;;;;;;13.93;12.93;;;;;;;;;;6074345;23;20609;-67
2023/05/21 11:56:48;;;;;;;15.30;13.90;;;;;;;;;;6074304;23;20655;-67
2023/05/21 11:59:17;;;;;;;16.80;12.00;;;;;;;;;;6077447;23;20670;-67
2023/05/21 12:01:45;;;;;;;14.17;12.77;;;;;;;;;;6074439;23;20596;-66
2023/05/21 12:04:15;;;;;;;14.17;13.07;;;;;;;;;;6077208;23;20622;-66
2023/05/21 12:06:43;;;;;;;13.23;12.30;;;;;;;;;;6049890;23;20646;-66
2023/05/21 12:09:12;;;;;;;14.17;13.07;;;;;;;;;;6051066;23;20611;-67
2023/05/21 12:11:41;;;;;;;16.67;13.87;;;;;;;;;;6074892;23;20611;-66
2023/05/21 12:14:10;;;;;;;15.80;14.60;;;;;;;;;;6077177;23;20611;-67
2023/05/21 12:16:40;;;;;;;14.03;13.00;;;;;;;;;;6074644;23;20627;-66
2023/05/21 12:19:09;;;;;;;14.73;13.63;;;;;;;;;;6050963;23;20593;-66
2023/05/21 12:21:38;;;;;;;15.17;14.00;;;;;;;;;;6075597;23;20625;-66
2023/05/21 12:24:07;;;;;;;14.00;12.90;;;;;;;;;;6077190;23;20599;-66
2023/05/21 12:26:35;;;;;;;15.40;13.97;;;;;;;;;;6077198;23;20623;-67
2023/05/21 12:29:05;;;;;;;15.47;14.37;;;;;;;;;;6078465;23;20602;-67
2023/05/21 12:31:33;;;;;;;14.63;13.63;;;;;;;;;;6076268;23;20604;-67
2023/05/21 12:34:03;;;;;;;15.10;14.10;;;;;;;;;;6076623;23;20640;-67
2023/05/21 12:36:32;;;;;;;15.53;14.40;;;;;;;;;;6077013;23;20643;-67
2023/05/21 12:39:01;;;;;;;16.77;15.53;;;;;;;;;;6078216;23;20600;-67
2023/05/21 12:41:30;;;;;;;15.37;14.13;;;;;;;;;;6075751;23;20603;-67
2023/05/21 12:43:58;;;;;;;15.43;13.93;;;;;;;;;;6076236;23;20612;-67
2023/05/21 12:46:26;;;;;;;15.10;13.80;;;;;;;;;;6074697;23;20608;-67
2023/05/21 12:48:55;;;;;;;15.63;14.17;;;;;;;;;;6073154;23;21180;-66
2023/05/21 12:51:24;;;;;;;14.77;13.57;;;;;;;;;;6073630;23;21202;-66
2023/05/21 12:53:53;;;;;;;16.13;14.90;;;;;;;;;;6072902;23;20619;-67
2023/05/21 12:56:21;;;;;;;16.97;15.70;;;;;;;;;;6046541;23;20619;-67
2023/05/21 12:58:50;;;;;;;15.00;14.00;;;;;;;;;;6073547;23;20679;-67
2023/05/21 13:01:22;;;;;;;17.47;16.07;;;;;;;;;;6074336;23;20853;-67
2023/05/21 13:03:50;;;;;;;15.93;14.80;;;;;;;;;;6073717;23;20576;-66
2023/05/21 13:06:18;;;;;;;15.40;14.27;;;;;;;;;;6073313;23;20646;-67
2023/05/21 13:08:48;;;;;;;15.53;14.43;;;;;;;;;;6070183;23;20619;-66
2023/05/21 13:11:16;;;;;;;16.80;15.43;;;;;;;;;;6069622;23;20707;-67
2023/05/21 13:13:44;;;;;;;14.20;13.10;;;;;;;;;;6072923;23;20663;-66
2023/05/21 13:16:12;;;;;;;14.47;13.57;;;;;;;;;;6074227;23;21065;-67
2023/05/21 13:18:41;;;;;;;15.97;14.67;;;;;;;;;;6074735;23;20616;-67
2023/05/21 13:21:09;;;;;;;13.97;12.90;;;;;;;;;;6071447;23;20644;-67
2023/05/21 13:23:37;;;;;;;14.93;13.70;;;;;;;;;;6073454;23;21175;-67
2023/05/21 13:26:06;;;;;;;15.30;13.40;;;;;;;;;;6070776;23;20619;-67
2023/05/21 13:28:35;;;;;;;15.30;14.10;;;;;;;;;;6025760;23;20607;-67
2023/05/21 13:31:03;;;;;;;15.27;14.23;;;;;;;;;;6075707;23;20994;-67
2023/05/21 13:33:32;;;;;;;14.97;13.70;;;;;;;;;;6077039;23;20939;-67
2023/05/21 13:36:00;;;;;;;16.00;14.60;;;;;;;;;;6051070;23;20608;-67
2023/05/21 13:38:28;;;;;;;15.73;14.63;;;;;;;;;;6077418;23;20600;-67
2023/05/21 13:40:57;;;;;;;15.23;14.13;;;;;;;;;;6077612;23;20671;-67
2023/05/21 13:43:26;;;;;;;15.57;14.10;;;;;;;;;;6075924;23;20615;-67
2023/05/21 13:45:55;;;;;;;15.17;13.63;;;;;;;;;;6050995;23;20612;-67
2023/05/21 13:48:23;;;;;;;14.60;13.57;;;;;;;;;;6076536;23;20603;-67
2023/05/21 13:50:51;;;;;;;15.53;14.40;;;;;;;;;;6076246;23;20656;-67
2023/05/21 13:53:19;;;;;;;14.07;13.07;;;;;;;;;;6075325;23;21178;-67
2023/05/21 13:55:47;;;;;;;15.73;14.43;;;;;;;;;;6076331;23;20615;-67
2023/05/21 13:58:16;;;;;;;14.67;13.67;;;;;;;;;;6068628;23;20596;-64
2023/05/21 14:00:45;;;;;;;14.77;13.67;;;;;;;;;;6067944;23;20606;-65
2023/05/21 14:03:13;;;;;;;14.97;13.67;;;;;;;;;;6050208;23;20573;-65
2023/05/21 14:05:41;;;;;;;15.53;14.17;;;;;;;;;;6074911;23;20567;-64
2023/05/21 14:08:10;;;;;;;14.90;13.60;;;;;;;;;;6052196;23;20618;-65
2023/05/21 14:10:38;;;;;;;14.97;13.73;;;;;;;;;;6072646;23;20631;-63
2023/05/21 14:13:06;;;;;;;15.43;14.13;;;;;;;;;;6072626;23;20608;-64
2023/05/21 14:15:34;;;;;;;13.60;12.60;;;;;;;;;;6071734;23;20580;-63
2023/05/21 14:18:06;;;;;;;12.90;11.77;;;;;;;;;;6074327;23;21109;-65
2023/05/21 14:20:35;;;;;;;14.17;12.97;;;;;;;;;;6076532;23;20540;-64
2023/05/21 14:23:03;;;;;;;12.53;11.63;;;;;;;;;;6074632;23;20580;-65
2023/05/21 14:25:31;;;;;;;15.23;13.90;;;;;;;;;;6076070;23;21139;-65
2023/05/21 14:27:59;;;;;;;14.63;13.70;;;;;;;;;;6073253;23;20583;-66
2023/05/21 14:30:27;;;;;;;15.40;14.20;;;;;;;;;;6041993;23;20624;-64